sensor_id;sensor_type;location;lat;lon;timestamp;P1;durP1;ratioP1;P2;durP2;ratioP2
4466;SDS011;2246;42.664;23.278;2023-05-10T00:00:41;6.05;;;4.53;;
4466;SDS011;2246;42.664;23.278;2023-05-10T00:03:07;8.63;;;5.65;;
4466;SDS011;2246;42.664;23.278;2023-05-10T00:05:33;9.55;;;5.30;;
4466;SDS011;2246;42.664;23.278;2023-05-10T00:07:59;7.78;;;5.65;;
4466;SDS011;2246;42.664;23.278;2023-05-10T00:10:25;6.30;;;4.57;;
4466;SDS011;2246;42.664;23.278;2023-05-10T00:12:51;7.95;;;5.53;;
4466;SDS011;2246;42.664;23.278;2023-05-10T00:15:17;7.85;;;5.43;;
4466;SDS011;2246;42.664;23.278;2023-05-10T00:17:43;8.20;;;5.78;;
4466;SDS011;2246;42.664;23.278;2023-05-10T00:20:10;7.18;;;5.20;;
4466;SDS011;2246;42.664;23.278;2023-05-10T00:22:36;7.03;;;5.25;;
4466;SDS011;2246;42.664;23.278;2023-05-10T00:25:02;8.40;;;5.82;;
4466;SDS011;2246;42.664;23.278;2023-05-10T00:27:28;8.73;;;6.40;;
4466;SDS011;2246;42.664;23.278;2023-05-10T00:29:54;8.98;;;5.43;;
4466;SDS011;2246;42.664;23.278;2023-05-10T00:32:20;6.88;;;5.30;;
4466;SDS011;2246;42.664;23.278;2023-05-10T00:34:46;6.97;;;5.18;;
4466;SDS011;2246;42.664;23.278;2023-05-10T00:37:13;10.13;;;6.13;;
4466;SDS011;2246;42.664;23.278;2023-05-10T00:39:39;10.07;;;5.38;;
4466;SDS011;2246;42.664;23.278;2023-05-10T00:42:05;8.20;;;5.78;;
4466;SDS011;2246;42.664;23.278;2023-05-10T00:44:31;7.03;;;5.45;;
4466;SDS011;2246;42.664;23.278;2023-05-10T00:46:57;7.40;;;5.53;;
4466;SDS011;2246;42.664;23.278;2023-05-10T00:49:23;7.72;;;5.47;;
4466;SDS011;2246;42.664;23.278;2023-05-10T00:51:49;8.18;;;5.97;;
4466;SDS011;2246;42.664;23.278;2023-05-10T00:54:15;8.77;;;6.38;;
4466;SDS011;2246;42.664;23.278;2023-05-10T00:56:42;11.73;;;6.45;;
4466;SDS011;2246;42.664;23.278;2023-05-10T00:59:13;6.90;;;5.80;;
4466;SDS011;2246;42.664;23.278;2023-05-10T01:01:40;7.83;;;6.23;;
4466;SDS011;2246;42.664;23.278;2023-05-10T01:04:06;7.88;;;5.90;;
4466;SDS011;2246;42.664;23.278;2023-05-10T01:06:33;9.73;;;5.78;;
4466;SDS011;2246;42.664;23.278;2023-05-10T01:08:59;9.20;;;6.28;;
4466;SDS011;2246;42.664;23.278;2023-05-10T01:11:25;9.98;;;6.20;;
4466;SDS011;2246;42.664;23.278;2023-05-10T01:13:53;8.32;;;5.90;;
4466;SDS011;2246;42.664;23.278;2023-05-10T01:16:20;8.57;;;6.20;;
4466;SDS011;2246;42.664;23.278;2023-05-10T01:18:46;9.73;;;6.18;;
4466;SDS011;2246;42.664;23.278;2023-05-10T01:34:02;9.45;;;6.78;;
4466;SDS011;2246;42.664;23.278;2023-05-10T01:44:10;6.43;;;5.03;;
4466;SDS011;2246;42.664;23.278;2023-05-10T01:46:41;6.53;;;5.35;;
4466;SDS011;2246;42.664;23.278;2023-05-10T01:49:11;8.45;;;5.18;;
4466;SDS011;2246;42.664;23.278;2023-05-10T01:51:41;5.47;;;4.45;;
4466;SDS011;2246;42.664;23.278;2023-05-10T01:54:11;6.63;;;5.13;;
4466;SDS011;2246;42.664;23.278;2023-05-10T01:56:38;5.47;;;4.40;;
4466;SDS011;2246;42.664;23.278;2023-05-10T01:59:06;7.28;;;4.72;;
4466;SDS011;2246;42.664;23.278;2023-05-10T02:01:34;5.90;;;4.72;;
4466;SDS011;2246;42.664;23.278;2023-05-10T02:04:03;5.10;;;4.25;;
4466;SDS011;2246;42.664;23.278;2023-05-10T02:06:30;9.45;;;4.22;;
4466;SDS011;2246;42.664;23.278;2023-05-10T02:08:57;6.75;;;4.43;;
4466;SDS011;2246;42.664;23.278;2023-05-10T02:11:23;5.97;;;4.43;;
4466;SDS011;2246;42.664;23.278;2023-05-10T02:13:51;6.18;;;4.30;;
4466;SDS011;2246;42.664;23.278;2023-05-10T02:16:17;5.78;;;3.72;;
4466;SDS011;2246;42.664;23.278;2023-05-10T02:18:44;5.50;;;3.63;;
4466;SDS011;2246;42.664;23.278;2023-05-10T04:11:52;5.50;;;3.63;;
4466;SDS011;2246;42.664;23.278;2023-05-10T04:14:19;6.55;;;3.97;;
4466;SDS011;2246;42.664;23.278;2023-05-10T04:16:45;6.05;;;4.00;;
4466;SDS011;2246;42.664;23.278;2023-05-10T04:19:11;7.30;;;3.70;;
4466;SDS011;2246;42.664;23.278;2023-05-10T04:21:37;9.40;;;4.30;;
4466;SDS011;2246;42.664;23.278;2023-05-10T04:24:04;5.55;;;3.40;;
4466;SDS011;2246;42.664;23.278;2023-05-10T04:26:30;9.40;;;4.38;;
4466;SDS011;2246;42.664;23.278;2023-05-10T04:28:56;6.22;;;3.97;;
4466;SDS011;2246;42.664;23.278;2023-05-10T04:31:22;5.20;;;3.97;;
4466;SDS011;2246;42.664;23.278;2023-05-10T04:33:48;6.15;;;4.13;;
4466;SDS011;2246;42.664;23.278;2023-05-10T04:36:15;13.05;;;4.60;;
4466;SDS011;2246;42.664;23.278;2023-05-10T04:38:41;7.70;;;4.22;;
4466;SDS011;2246;42.664;23.278;2023-05-10T04:41:08;8.35;;;4.30;;
4466;SDS011;2246;42.664;23.278;2023-05-10T04:43:35;5.00;;;3.53;;
4466;SDS011;2246;42.664;23.278;2023-05-10T04:46:02;10.82;;;3.78;;
4466;SDS011;2246;42.664;23.278;2023-05-10T04:48:28;6.40;;;4.53;;
4466;SDS011;2246;42.664;23.278;2023-05-10T04:50:54;11.95;;;4.78;;
4466;SDS011;2246;42.664;23.278;2023-05-10T04:53:21;8.27;;;4.43;;
4466;SDS011;2246;42.664;23.278;2023-05-10T04:55:47;7.85;;;4.70;;
4466;SDS011;2246;42.664;23.278;2023-05-10T04:58:13;10.13;;;4.70;;
4466;SDS011;2246;42.664;23.278;2023-05-10T05:00:39;7.43;;;4.55;;
4466;SDS011;2246;42.664;23.278;2023-05-10T05:03:06;5.63;;;4.00;;
4466;SDS011;2246;42.664;23.278;2023-05-10T05:05:32;6.68;;;4.57;;
4466;SDS011;2246;42.664;23.278;2023-05-10T05:07:58;7.40;;;4.45;;
4466;SDS011;2246;42.664;23.278;2023-05-10T05:10:25;8.65;;;4.40;;
4466;SDS011;2246;42.664;23.278;2023-05-10T05:12:51;6.30;;;4.60;;
4466;SDS011;2246;42.664;23.278;2023-05-10T05:15:17;6.82;;;4.25;;
4466;SDS011;2246;42.664;23.278;2023-05-10T05:17:43;8.48;;;5.10;;
4466;SDS011;2246;42.664;23.278;2023-05-10T05:20:10;10.10;;;4.72;;
4466;SDS011;2246;42.664;23.278;2023-05-10T05:22:36;9.77;;;5.32;;
4466;SDS011;2246;42.664;23.278;2023-05-10T05:25:02;10.00;;;5.65;;
4466;SDS011;2246;42.664;23.278;2023-05-10T05:27:29;16.48;;;5.82;;
4466;SDS011;2246;42.664;23.278;2023-05-10T05:29:55;10.70;;;5.55;;
4466;SDS011;2246;42.664;23.278;2023-05-10T05:32:22;12.98;;;5.82;;
4466;SDS011;2246;42.664;23.278;2023-05-10T05:34:48;7.15;;;4.80;;
4466;SDS011;2246;42.664;23.278;2023-05-10T05:37:14;10.50;;;5.43;;
4466;SDS011;2246;42.664;23.278;2023-05-10T05:39:41;14.30;;;5.80;;
4466;SDS011;2246;42.664;23.278;2023-05-10T05:42:07;18.63;;;7.45;;
4466;SDS011;2246;42.664;23.278;2023-05-10T05:44:33;9.00;;;6.43;;
4466;SDS011;2246;42.664;23.278;2023-05-10T05:46:59;8.18;;;5.63;;
4466;SDS011;2246;42.664;23.278;2023-05-10T05:49:25;10.70;;;5.82;;
4466;SDS011;2246;42.664;23.278;2023-05-10T05:51:51;9.73;;;6.43;;
4466;SDS011;2246;42.664;23.278;2023-05-10T05:54:18;9.57;;;6.57;;
4466;SDS011;2246;42.664;23.278;2023-05-10T05:56:44;19.40;;;6.53;;
4466;SDS011;2246;42.664;23.278;2023-05-10T05:59:10;14.50;;;5.90;;
4466;SDS011;2246;42.664;23.278;2023-05-10T06:01:36;14.27;;;6.38;;
4466;SDS011;2246;42.664;23.278;2023-05-10T06:04:02;9.05;;;6.18;;
4466;SDS011;2246;42.664;23.278;2023-05-10T06:06:28;10.30;;;6.15;;
4466;SDS011;2246;42.664;23.278;2023-05-10T06:08:54;9.20;;;6.13;;
4466;SDS011;2246;42.664;23.278;2023-05-10T06:11:21;10.05;;;6.30;;
4466;SDS011;2246;42.664;23.278;2023-05-10T06:13:47;10.73;;;6.78;;
4466;SDS011;2246;42.664;23.278;2023-05-10T06:16:13;11.90;;;7.25;;
4466;SDS011;2246;42.664;23.278;2023-05-10T06:18:39;11.45;;;7.43;;
4466;SDS011;2246;42.664;23.278;2023-05-10T06:21:05;13.25;;;8.13;;
4466;SDS011;2246;42.664;23.278;2023-05-10T06:23:31;12.10;;;6.43;;
4466;SDS011;2246;42.664;23.278;2023-05-10T06:25:57;12.82;;;7.70;;
4466;SDS011;2246;42.664;23.278;2023-05-10T06:28:23;16.92;;;8.15;;
4466;SDS011;2246;42.664;23.278;2023-05-10T06:30:49;17.15;;;8.10;;
4466;SDS011;2246;42.664;23.278;2023-05-10T06:33:16;11.43;;;6.88;;
4466;SDS011;2246;42.664;23.278;2023-05-10T06:35:42;13.73;;;8.10;;
4466;SDS011;2246;42.664;23.278;2023-05-10T06:38:08;13.85;;;7.22;;
4466;SDS011;2246;42.664;23.278;2023-05-10T06:40:34;12.40;;;7.00;;
4466;SDS011;2246;42.664;23.278;2023-05-10T06:43:00;14.85;;;8.00;;
4466;SDS011;2246;42.664;23.278;2023-05-10T06:45:27;11.73;;;7.45;;
4466;SDS011;2246;42.664;23.278;2023-05-10T06:47:53;13.73;;;7.50;;
4466;SDS011;2246;42.664;23.278;2023-05-10T06:50:19;13.55;;;8.05;;
4466;SDS011;2246;42.664;23.278;2023-05-10T06:52:45;9.85;;;6.47;;
4466;SDS011;2246;42.664;23.278;2023-05-10T06:55:11;14.65;;;7.50;;
4466;SDS011;2246;42.664;23.278;2023-05-10T06:57:37;11.82;;;7.28;;
4466;SDS011;2246;42.664;23.278;2023-05-10T07:00:03;16.67;;;7.78;;
4466;SDS011;2246;42.664;23.278;2023-05-10T07:02:30;10.30;;;6.90;;
4466;SDS011;2246;42.664;23.278;2023-05-10T07:04:56;13.00;;;7.78;;
4466;SDS011;2246;42.664;23.278;2023-05-10T07:07:22;10.93;;;6.85;;
4466;SDS011;2246;42.664;23.278;2023-05-10T07:09:48;12.25;;;6.72;;
4466;SDS011;2246;42.664;23.278;2023-05-10T07:12:15;10.25;;;6.45;;
4466;SDS011;2246;42.664;23.278;2023-05-10T07:14:41;15.05;;;7.13;;
4466;SDS011;2246;42.664;23.278;2023-05-10T07:17:07;13.15;;;7.80;;
4466;SDS011;2246;42.664;23.278;2023-05-10T07:19:33;12.32;;;6.55;;
4466;SDS011;2246;42.664;23.278;2023-05-10T07:21:59;16.83;;;7.70;;
4466;SDS011;2246;42.664;23.278;2023-05-10T07:24:26;15.48;;;8.20;;
4466;SDS011;2246;42.664;23.278;2023-05-10T07:26:52;10.65;;;6.85;;
4466;SDS011;2246;42.664;23.278;2023-05-10T07:29:18;13.48;;;7.03;;
4466;SDS011;2246;42.664;23.278;2023-05-10T07:31:44;11.05;;;7.65;;
4466;SDS011;2246;42.664;23.278;2023-05-10T07:34:10;12.48;;;7.88;;
4466;SDS011;2246;42.664;23.278;2023-05-10T07:36:37;9.88;;;7.68;;
4466;SDS011;2246;42.664;23.278;2023-05-10T07:39:03;13.70;;;7.93;;
4466;SDS011;2246;42.664;23.278;2023-05-10T07:41:29;13.38;;;7.65;;
4466;SDS011;2246;42.664;23.278;2023-05-10T07:43:55;13.93;;;7.57;;
4466;SDS011;2246;42.664;23.278;2023-05-10T07:46:22;11.55;;;7.57;;
4466;SDS011;2246;42.664;23.278;2023-05-10T07:48:48;13.52;;;8.23;;
4466;SDS011;2246;42.664;23.278;2023-05-10T07:51:14;13.40;;;7.25;;
4466;SDS011;2246;42.664;23.278;2023-05-10T07:53:40;12.13;;;7.57;;
4466;SDS011;2246;42.664;23.278;2023-05-10T07:58:52;16.55;;;8.45;;
4466;SDS011;2246;42.664;23.278;2023-05-10T08:01:18;14.85;;;8.55;;
4466;SDS011;2246;42.664;23.278;2023-05-10T08:03:44;14.20;;;8.40;;
4466;SDS011;2246;42.664;23.278;2023-05-10T08:06:10;16.75;;;7.75;;
4466;SDS011;2246;42.664;23.278;2023-05-10T08:08:37;14.35;;;8.13;;
4466;SDS011;2246;42.664;23.278;2023-05-10T08:11:03;15.25;;;8.32;;
4466;SDS011;2246;42.664;23.278;2023-05-10T08:13:29;12.15;;;7.95;;
4466;SDS011;2246;42.664;23.278;2023-05-10T08:15:56;17.67;;;8.48;;
4466;SDS011;2246;42.664;23.278;2023-05-10T08:18:22;13.90;;;8.07;;
4466;SDS011;2246;42.664;23.278;2023-05-10T08:20:48;11.93;;;7.53;;
4466;SDS011;2246;42.664;23.278;2023-05-10T08:23:15;11.43;;;7.65;;
4466;SDS011;2246;42.664;23.278;2023-05-10T08:25:41;12.18;;;8.15;;
4466;SDS011;2246;42.664;23.278;2023-05-10T08:28:07;12.65;;;8.45;;
4466;SDS011;2246;42.664;23.278;2023-05-10T08:30:33;12.10;;;7.75;;
4466;SDS011;2246;42.664;23.278;2023-05-10T08:32:59;16.10;;;7.88;;
4466;SDS011;2246;42.664;23.278;2023-05-10T08:35:25;9.82;;;6.85;;
4466;SDS011;2246;42.664;23.278;2023-05-10T08:37:51;13.80;;;7.93;;
4466;SDS011;2246;42.664;23.278;2023-05-10T08:40:17;11.50;;;7.93;;
4466;SDS011;2246;42.664;23.278;2023-05-10T08:42:48;13.82;;;7.82;;
4466;SDS011;2246;42.664;23.278;2023-05-10T08:45:17;11.75;;;7.35;;
4466;SDS011;2246;42.664;23.278;2023-05-10T08:47:44;10.38;;;7.38;;
4466;SDS011;2246;42.664;23.278;2023-05-10T08:50:11;15.07;;;8.60;;
4466;SDS011;2246;42.664;23.278;2023-05-10T08:52:37;12.70;;;8.77;;
4466;SDS011;2246;42.664;23.278;2023-05-10T08:55:05;12.35;;;8.02;;
4466;SDS011;2246;42.664;23.278;2023-05-10T08:57:31;12.38;;;7.82;;
4466;SDS011;2246;42.664;23.278;2023-05-10T08:59:57;17.48;;;9.18;;
4466;SDS011;2246;42.664;23.278;2023-05-10T09:02:23;15.43;;;9.55;;
4466;SDS011;2246;42.664;23.278;2023-05-10T09:04:50;10.60;;;8.07;;
4466;SDS011;2246;42.664;23.278;2023-05-10T09:07:16;13.98;;;8.50;;
4466;SDS011;2246;42.664;23.278;2023-05-10T09:09:42;12.88;;;7.53;;
4466;SDS011;2246;42.664;23.278;2023-05-10T09:12:09;10.25;;;6.80;;
4466;SDS011;2246;42.664;23.278;2023-05-10T09:14:36;11.85;;;8.25;;
4466;SDS011;2246;42.664;23.278;2023-05-10T09:17:03;13.77;;;8.90;;
4466;SDS011;2246;42.664;23.278;2023-05-10T09:19:30;13.73;;;8.98;;
4466;SDS011;2246;42.664;23.278;2023-05-10T09:21:56;13.68;;;8.88;;
4466;SDS011;2246;42.664;23.278;2023-05-10T09:24:25;13.45;;;8.68;;
4466;SDS011;2246;42.664;23.278;2023-05-10T09:26:52;12.40;;;8.10;;
4466;SDS011;2246;42.664;23.278;2023-05-10T09:29:18;14.68;;;7.95;;
4466;SDS011;2246;42.664;23.278;2023-05-10T09:34:11;16.58;;;8.48;;
4466;SDS011;2246;42.664;23.278;2023-05-10T09:36:55;20.00;;;8.45;;
4466;SDS011;2246;42.664;23.278;2023-05-10T09:39:29;11.40;;;7.70;;
4466;SDS011;2246;42.664;23.278;2023-05-10T09:41:55;17.63;;;8.55;;
4466;SDS011;2246;42.664;23.278;2023-05-10T09:44:22;11.13;;;8.07;;
4466;SDS011;2246;42.664;23.278;2023-05-10T09:46:49;15.05;;;7.97;;
4466;SDS011;2246;42.664;23.278;2023-05-10T09:49:16;11.85;;;7.18;;
4466;SDS011;2246;42.664;23.278;2023-05-10T09:51:42;12.68;;;8.27;;
4466;SDS011;2246;42.664;23.278;2023-05-10T09:54:12;12.30;;;8.35;;
4466;SDS011;2246;42.664;23.278;2023-05-10T09:56:38;16.13;;;7.95;;
4466;SDS011;2246;42.664;23.278;2023-05-10T09:59:06;10.25;;;7.45;;
4466;SDS011;2246;42.664;23.278;2023-05-10T10:01:33;14.52;;;7.72;;
4466;SDS011;2246;42.664;23.278;2023-05-10T10:04:02;14.88;;;8.90;;
4466;SDS011;2246;42.664;23.278;2023-05-10T10:06:28;12.70;;;7.82;;
4466;SDS011;2246;42.664;23.278;2023-05-10T10:08:55;11.18;;;6.38;;
4466;SDS011;2246;42.664;23.278;2023-05-10T10:11:21;13.05;;;7.40;;
4466;SDS011;2246;42.664;23.278;2023-05-10T10:13:47;10.05;;;7.63;;
4466;SDS011;2246;42.664;23.278;2023-05-10T10:16:13;11.98;;;8.32;;
4466;SDS011;2246;42.664;23.278;2023-05-10T10:18:40;15.20;;;7.78;;
4466;SDS011;2246;42.664;23.278;2023-05-10T10:21:06;11.93;;;8.38;;
4466;SDS011;2246;42.664;23.278;2023-05-10T10:23:35;9.95;;;7.18;;
4466;SDS011;2246;42.664;23.278;2023-05-10T10:26:02;10.98;;;7.25;;
4466;SDS011;2246;42.664;23.278;2023-05-10T10:28:37;11.48;;;7.60;;
4466;SDS011;2246;42.664;23.278;2023-05-10T10:33:55;18.45;;;7.78;;
4466;SDS011;2246;42.664;23.278;2023-05-10T10:36:22;11.30;;;6.47;;
4466;SDS011;2246;42.664;23.278;2023-05-10T10:41:27;13.27;;;6.97;;
4466;SDS011;2246;42.664;23.278;2023-05-10T10:46:58;13.77;;;7.15;;
4466;SDS011;2246;42.664;23.278;2023-05-10T10:49:24;8.93;;;6.35;;
4466;SDS011;2246;42.664;23.278;2023-05-10T10:54:35;11.15;;;6.88;;
4466;SDS011;2246;42.664;23.278;2023-05-10T10:57:13;9.07;;;6.38;;
4466;SDS011;2246;42.664;23.278;2023-05-10T10:59:43;18.05;;;6.63;;
4466;SDS011;2246;42.664;23.278;2023-05-10T11:02:09;18.20;;;9.45;;
4466;SDS011;2246;42.664;23.278;2023-05-10T11:04:41;12.20;;;6.97;;
4466;SDS011;2246;42.664;23.278;2023-05-10T11:07:17;9.02;;;6.10;;
4466;SDS011;2246;42.664;23.278;2023-05-10T11:09:44;10.85;;;6.90;;
4466;SDS011;2246;42.664;23.278;2023-05-10T11:12:11;10.13;;;6.68;;
4466;SDS011;2246;42.664;23.278;2023-05-10T11:14:37;9.75;;;5.40;;
4466;SDS011;2246;42.664;23.278;2023-05-10T11:17:21;8.23;;;5.68;;
4466;SDS011;2246;42.664;23.278;2023-05-10T11:20:09;10.73;;;6.53;;
4466;SDS011;2246;42.664;23.278;2023-05-10T11:22:54;13.35;;;6.22;;
4466;SDS011;2246;42.664;23.278;2023-05-10T11:25:23;10.23;;;6.43;;
4466;SDS011;2246;42.664;23.278;2023-05-10T11:27:52;13.23;;;6.82;;
4466;SDS011;2246;42.664;23.278;2023-05-10T11:30:18;13.15;;;6.85;;
4466;SDS011;2246;42.664;23.278;2023-05-10T11:32:44;10.75;;;5.97;;
4466;SDS011;2246;42.664;23.278;2023-05-10T11:35:11;7.18;;;5.90;;
4466;SDS011;2246;42.664;23.278;2023-05-10T11:37:38;10.73;;;6.10;;
4466;SDS011;2246;42.664;23.278;2023-05-10T11:40:08;12.85;;;6.95;;
4466;SDS011;2246;42.664;23.278;2023-05-10T11:42:37;13.18;;;6.05;;
4466;SDS011;2246;42.664;23.278;2023-05-10T11:45:04;8.23;;;6.38;;
4466;SDS011;2246;42.664;23.278;2023-05-10T11:47:30;8.88;;;6.28;;
4466;SDS011;2246;42.664;23.278;2023-05-10T11:49:56;9.20;;;5.72;;
4466;SDS011;2246;42.664;23.278;2023-05-10T11:52:22;12.52;;;5.72;;
4466;SDS011;2246;42.664;23.278;2023-05-10T11:54:52;11.13;;;5.93;;
4466;SDS011;2246;42.664;23.278;2023-05-10T11:57:19;10.32;;;6.47;;
4466;SDS011;2246;42.664;23.278;2023-05-10T11:59:46;13.77;;;6.78;;
4466;SDS011;2246;42.664;23.278;2023-05-10T12:02:14;12.80;;;7.35;;
4466;SDS011;2246;42.664;23.278;2023-05-10T12:04:41;9.85;;;6.68;;
4466;SDS011;2246;42.664;23.278;2023-05-10T12:07:08;14.52;;;7.05;;
4466;SDS011;2246;42.664;23.278;2023-05-10T12:09:34;9.70;;;6.65;;
4466;SDS011;2246;42.664;23.278;2023-05-10T12:12:01;10.00;;;6.93;;
4466;SDS011;2246;42.664;23.278;2023-05-10T12:14:28;10.48;;;7.50;;
4466;SDS011;2246;42.664;23.278;2023-05-10T12:16:58;12.57;;;7.03;;
4466;SDS011;2246;42.664;23.278;2023-05-10T12:19:24;13.35;;;7.10;;
4466;SDS011;2246;42.664;23.278;2023-05-10T12:21:50;13.73;;;7.53;;
4466;SDS011;2246;42.664;23.278;2023-05-10T12:24:16;10.82;;;7.10;;
4466;SDS011;2246;42.664;23.278;2023-05-10T12:26:43;10.75;;;7.32;;
4466;SDS011;2246;42.664;23.278;2023-05-10T12:29:12;16.13;;;6.93;;
4466;SDS011;2246;42.664;23.278;2023-05-10T12:31:49;10.63;;;6.78;;
4466;SDS011;2246;42.664;23.278;2023-05-10T12:34:31;14.57;;;8.23;;
4466;SDS011;2246;42.664;23.278;2023-05-10T12:36:57;10.38;;;7.65;;
4466;SDS011;2246;42.664;23.278;2023-05-10T12:39:24;13.82;;;6.90;;
4466;SDS011;2246;42.664;23.278;2023-05-10T12:41:50;9.20;;;6.95;;
4466;SDS011;2246;42.664;23.278;2023-05-10T12:44:16;10.85;;;7.03;;
4466;SDS011;2246;42.664;23.278;2023-05-10T12:46:43;12.18;;;7.03;;
4466;SDS011;2246;42.664;23.278;2023-05-10T12:49:09;14.38;;;7.88;;
4466;SDS011;2246;42.664;23.278;2023-05-10T12:51:35;15.05;;;8.32;;
4466;SDS011;2246;42.664;23.278;2023-05-10T12:54:02;11.45;;;7.05;;
4466;SDS011;2246;42.664;23.278;2023-05-10T12:56:28;12.87;;;7.80;;
4466;SDS011;2246;42.664;23.278;2023-05-10T12:58:54;12.68;;;7.32;;
4466;SDS011;2246;42.664;23.278;2023-05-10T13:01:20;19.25;;;8.00;;
4466;SDS011;2246;42.664;23.278;2023-05-10T13:03:46;9.80;;;7.38;;
4466;SDS011;2246;42.664;23.278;2023-05-10T13:06:13;14.30;;;7.47;;
4466;SDS011;2246;42.664;23.278;2023-05-10T13:08:39;12.52;;;8.27;;
4466;SDS011;2246;42.664;23.278;2023-05-10T13:11:05;13.18;;;7.13;;
4466;SDS011;2246;42.664;23.278;2023-05-10T13:13:31;13.02;;;7.60;;
4466;SDS011;2246;42.664;23.278;2023-05-10T13:15:57;11.77;;;7.18;;
4466;SDS011;2246;42.664;23.278;2023-05-10T13:18:23;12.20;;;7.28;;
4466;SDS011;2246;42.664;23.278;2023-05-10T13:20:51;13.73;;;7.38;;
4466;SDS011;2246;42.664;23.278;2023-05-10T13:23:17;9.35;;;6.93;;
4466;SDS011;2246;42.664;23.278;2023-05-10T13:25:43;15.80;;;7.15;;
4466;SDS011;2246;42.664;23.278;2023-05-10T13:28:09;13.30;;;7.95;;
4466;SDS011;2246;42.664;23.278;2023-05-10T13:30:35;10.77;;;7.30;;
4466;SDS011;2246;42.664;23.278;2023-05-10T13:33:01;15.02;;;7.18;;
4466;SDS011;2246;42.664;23.278;2023-05-10T13:35:27;11.95;;;8.15;;
4466;SDS011;2246;42.664;23.278;2023-05-10T13:37:53;11.68;;;7.07;;
4466;SDS011;2246;42.664;23.278;2023-05-10T13:40:22;12.13;;;7.82;;
4466;SDS011;2246;42.664;23.278;2023-05-10T13:42:48;11.02;;;7.13;;
4466;SDS011;2246;42.664;23.278;2023-05-10T13:45:14;12.07;;;8.40;;
4466;SDS011;2246;42.664;23.278;2023-05-10T13:47:41;15.93;;;7.15;;
4466;SDS011;2246;42.664;23.278;2023-05-10T13:50:07;11.45;;;7.78;;
4466;SDS011;2246;42.664;23.278;2023-05-10T13:52:33;23.38;;;7.70;;
4466;SDS011;2246;42.664;23.278;2023-05-10T13:55:00;13.40;;;8.05;;
4466;SDS011;2246;42.664;23.278;2023-05-10T13:57:26;10.50;;;7.35;;
4466;SDS011;2246;42.664;23.278;2023-05-10T13:59:53;18.48;;;7.22;;
4466;SDS011;2246;42.664;23.278;2023-05-10T14:02:20;13.90;;;7.50;;
4466;SDS011;2246;42.664;23.278;2023-05-10T14:04:46;11.80;;;7.43;;
4466;SDS011;2246;42.664;23.278;2023-05-10T14:07:12;13.10;;;7.57;;
4466;SDS011;2246;42.664;23.278;2023-05-10T14:09:38;12.75;;;6.97;;
4466;SDS011;2246;42.664;23.278;2023-05-10T14:12:04;10.85;;;6.97;;
4466;SDS011;2246;42.664;23.278;2023-05-10T14:14:30;11.85;;;8.05;;
4466;SDS011;2246;42.664;23.278;2023-05-10T14:16:56;15.43;;;8.75;;
4466;SDS011;2246;42.664;23.278;2023-05-10T14:19:24;8.85;;;6.38;;
4466;SDS011;2246;42.664;23.278;2023-05-10T14:21:51;11.48;;;6.40;;
4466;SDS011;2246;42.664;23.278;2023-05-10T14:24:17;11.32;;;7.20;;
4466;SDS011;2246;42.664;23.278;2023-05-10T14:26:43;12.05;;;7.03;;
4466;SDS011;2246;42.664;23.278;2023-05-10T14:29:10;9.57;;;6.90;;
4466;SDS011;2246;42.664;23.278;2023-05-10T14:31:36;15.73;;;7.22;;
4466;SDS011;2246;42.664;23.278;2023-05-10T14:34:02;10.65;;;7.00;;
4466;SDS011;2246;42.664;23.278;2023-05-10T14:36:28;11.20;;;7.30;;
4466;SDS011;2246;42.664;23.278;2023-05-10T14:38:54;10.82;;;6.82;;
4466;SDS011;2246;42.664;23.278;2023-05-10T14:41:20;12.00;;;6.88;;
4466;SDS011;2246;42.664;23.278;2023-05-10T14:43:46;11.13;;;7.40;;
4466;SDS011;2246;42.664;23.278;2023-05-10T14:46:12;14.43;;;8.23;;
4466;SDS011;2246;42.664;23.278;2023-05-10T14:48:38;11.77;;;6.93;;
4466;SDS011;2246;42.664;23.278;2023-05-10T14:51:04;11.20;;;7.07;;
4466;SDS011;2246;42.664;23.278;2023-05-10T14:53:31;12.40;;;6.72;;
4466;SDS011;2246;42.664;23.278;2023-05-10T14:55:57;12.27;;;7.95;;
4466;SDS011;2246;42.664;23.278;2023-05-10T14:58:26;11.15;;;7.53;;
4466;SDS011;2246;42.664;23.278;2023-05-10T15:00:52;11.13;;;7.18;;
4466;SDS011;2246;42.664;23.278;2023-05-10T15:03:18;10.50;;;7.35;;
4466;SDS011;2246;42.664;23.278;2023-05-10T15:05:44;10.55;;;6.88;;
4466;SDS011;2246;42.664;23.278;2023-05-10T15:08:10;10.43;;;7.20;;
4466;SDS011;2246;42.664;23.278;2023-05-10T15:10:37;12.35;;;6.55;;
4466;SDS011;2246;42.664;23.278;2023-05-10T15:13:03;12.77;;;7.45;;
4466;SDS011;2246;42.664;23.278;2023-05-10T15:15:30;11.63;;;6.63;;
4466;SDS011;2246;42.664;23.278;2023-05-10T15:17:56;12.35;;;7.05;;
4466;SDS011;2246;42.664;23.278;2023-05-10T15:20:22;12.93;;;7.00;;
4466;SDS011;2246;42.664;23.278;2023-05-10T15:22:48;10.57;;;7.03;;
4466;SDS011;2246;42.664;23.278;2023-05-10T15:25:14;10.48;;;6.90;;
4466;SDS011;2246;42.664;23.278;2023-05-10T15:27:41;12.02;;;6.57;;
4466;SDS011;2246;42.664;23.278;2023-05-10T15:30:08;12.18;;;6.82;;
4466;SDS011;2246;42.664;23.278;2023-05-10T15:32:34;13.70;;;7.65;;
4466;SDS011;2246;42.664;23.278;2023-05-10T15:35:01;12.27;;;8.10;;
4466;SDS011;2246;42.664;23.278;2023-05-10T15:37:27;12.43;;;6.97;;
4466;SDS011;2246;42.664;23.278;2023-05-10T15:39:53;12.55;;;7.30;;
4466;SDS011;2246;42.664;23.278;2023-05-10T15:42:19;12.45;;;7.68;;
4466;SDS011;2246;42.664;23.278;2023-05-10T15:44:46;14.88;;;6.72;;
4466;SDS011;2246;42.664;23.278;2023-05-10T15:47:15;11.80;;;7.30;;
4466;SDS011;2246;42.664;23.278;2023-05-10T15:49:41;18.25;;;8.07;;
4466;SDS011;2246;42.664;23.278;2023-05-10T15:52:07;12.07;;;7.53;;
4466;SDS011;2246;42.664;23.278;2023-05-10T15:54:33;9.90;;;6.57;;
4466;SDS011;2246;42.664;23.278;2023-05-10T15:56:59;15.38;;;6.55;;
4466;SDS011;2246;42.664;23.278;2023-05-10T15:59:25;11.13;;;6.97;;
4466;SDS011;2246;42.664;23.278;2023-05-10T16:01:51;11.80;;;7.63;;
4466;SDS011;2246;42.664;23.278;2023-05-10T16:04:17;13.68;;;7.50;;
4466;SDS011;2246;42.664;23.278;2023-05-10T16:06:44;10.65;;;7.20;;
4466;SDS011;2246;42.664;23.278;2023-05-10T16:09:10;12.60;;;7.78;;
4466;SDS011;2246;42.664;23.278;2023-05-10T16:11:36;12.85;;;7.40;;
4466;SDS011;2246;42.664;23.278;2023-05-10T16:14:02;17.55;;;7.95;;
4466;SDS011;2246;42.664;23.278;2023-05-10T16:16:28;13.65;;;7.18;;
4466;SDS011;2246;42.664;23.278;2023-05-10T16:18:55;12.00;;;7.57;;
4466;SDS011;2246;42.664;23.278;2023-05-10T16:21:21;14.73;;;7.65;;
4466;SDS011;2246;42.664;23.278;2023-05-10T16:23:47;11.43;;;6.68;;
4466;SDS011;2246;42.664;23.278;2023-05-10T16:26:13;12.50;;;7.72;;
4466;SDS011;2246;42.664;23.278;2023-05-10T16:28:39;13.15;;;7.30;;
4466;SDS011;2246;42.664;23.278;2023-05-10T16:31:05;10.85;;;7.43;;
4466;SDS011;2246;42.664;23.278;2023-05-10T16:33:31;10.23;;;6.72;;
4466;SDS011;2246;42.664;23.278;2023-05-10T16:35:57;8.02;;;6.38;;
4466;SDS011;2246;42.664;23.278;2023-05-10T16:38:23;10.50;;;6.50;;
4466;SDS011;2246;42.664;23.278;2023-05-10T16:40:49;10.10;;;6.40;;
4466;SDS011;2246;42.664;23.278;2023-05-10T16:43:15;10.45;;;7.00;;
4466;SDS011;2246;42.664;23.278;2023-05-10T16:45:41;10.38;;;6.63;;
4466;SDS011;2246;42.664;23.278;2023-05-10T16:48:08;9.60;;;6.47;;
4466;SDS011;2246;42.664;23.278;2023-05-10T16:50:34;12.27;;;6.72;;
4466;SDS011;2246;42.664;23.278;2023-05-10T16:53:00;12.50;;;6.78;;
4466;SDS011;2246;42.664;23.278;2023-05-10T16:55:26;9.77;;;6.68;;
4466;SDS011;2246;42.664;23.278;2023-05-10T16:57:52;11.95;;;6.95;;
4466;SDS011;2246;42.664;23.278;2023-05-10T17:00:23;10.43;;;7.13;;
4466;SDS011;2246;42.664;23.278;2023-05-10T17:02:49;13.75;;;6.95;;
4466;SDS011;2246;42.664;23.278;2023-05-10T17:05:16;13.18;;;7.20;;
4466;SDS011;2246;42.664;23.278;2023-05-10T17:07:42;11.15;;;7.10;;
4466;SDS011;2246;42.664;23.278;2023-05-10T17:10:08;9.45;;;6.95;;
4466;SDS011;2246;42.664;23.278;2023-05-10T17:12:34;13.90;;;7.28;;
4466;SDS011;2246;42.664;23.278;2023-05-10T17:15:00;17.65;;;7.50;;